METAR Data
IDs: Format: Raw Decoded Include TAF

Data at: 0130 UTC 19 Oct 2021

KCRP 190051Z 12004KT 10SM FEW035 SCT042 SCT250 22/17 A3002 RMK AO2 SLP166 T02170167